createdAt,value
2018-12-09T00:00:17.604Z,7.52
2018-12-09T00:01:17.580Z,7.60
2018-12-09T00:02:17.580Z,7.56
2018-12-09T00:03:17.557Z,7.59
2018-12-09T00:04:17.548Z,7.55
2018-12-09T00:05:17.539Z,7.52
2018-12-09T00:06:17.540Z,7.47
2018-12-09T00:07:17.527Z,7.53
2018-12-09T00:08:17.504Z,7.47
2018-12-09T00:09:17.501Z,7.45
2018-12-09T00:10:17.494Z,7.41
2018-12-09T00:11:17.483Z,7.53
2018-12-09T00:12:17.484Z,7.53
2018-12-09T00:13:17.448Z,7.49
2018-12-09T00:14:17.441Z,7.53
2018-12-09T00:15:17.437Z,7.52
2018-12-09T00:16:17.418Z,7.55
2018-12-09T00:17:17.417Z,7.52
2018-12-09T00:18:17.395Z,7.55
2018-12-09T00:19:17.386Z,7.50
2018-12-09T00:20:17.381Z,7.41
2018-12-09T00:21:17.366Z,7.41
2018-12-09T00:22:17.548Z,7.55
2018-12-09T00:23:17.349Z,7.53
2018-12-09T00:24:17.331Z,7.56
2018-12-09T00:25:18.085Z,7.53
2018-12-09T00:26:17.311Z,7.55
2018-12-09T00:27:17.303Z,7.52
2018-12-09T00:28:17.301Z,7.53
2018-12-09T00:29:17.281Z,7.50
2018-12-09T00:30:17.269Z,7.45
2018-12-09T00:31:17.260Z,7.49
2018-12-09T00:32:17.250Z,7.49
2018-12-09T00:33:17.246Z,7.49
2018-12-09T00:34:17.226Z,7.49
2018-12-09T00:35:17.215Z,7.56
2018-12-09T00:36:17.203Z,7.58
2018-12-09T00:37:17.192Z,7.44
2018-12-09T00:38:17.194Z,7.53
2018-12-09T00:39:17.171Z,7.45
2018-12-09T00:40:17.174Z,7.47
2018-12-09T00:41:17.150Z,7.50
2018-12-09T00:42:17.143Z,7.42
2018-12-09T00:43:17.148Z,7.45
2018-12-09T00:44:17.118Z,7.45
2018-12-09T00:45:17.108Z,7.47
2018-12-09T00:46:17.101Z,7.52
2018-12-09T00:47:17.085Z,7.52
2018-12-09T00:48:17.086Z,7.47
2018-12-09T00:49:17.063Z,7.44
2018-12-09T00:50:17.060Z,7.44
2018-12-09T00:51:17.045Z,7.52
2018-12-09T00:52:17.039Z,7.53
2018-12-09T00:53:17.059Z,7.49
2018-12-09T00:54:17.011Z,7.42
2018-12-09T00:55:16.999Z,7.42
2018-12-09T00:56:16.999Z,7.42
2018-12-09T00:57:16.985Z,7.53
2018-12-09T00:58:16.969Z,7.52
2018-12-09T00:59:16.974Z,7.49
2018-12-09T01:00:17.053Z,7.58
2018-12-09T01:01:16.960Z,7.50
2018-12-09T01:02:16.926Z,7.55
2018-12-09T01:03:16.916Z,7.53
2018-12-09T01:04:16.923Z,7.49
2018-12-09T01:05:16.895Z,7.55
2018-12-09T01:06:16.891Z,7.49
2018-12-09T01:07:16.873Z,7.49
2018-12-09T01:08:16.862Z,7.52
2018-12-09T01:09:16.863Z,7.53
2018-12-09T01:10:16.841Z,7.53
2018-12-09T01:11:16.828Z,7.41
2018-12-09T01:12:16.820Z,7.49
2018-12-09T01:13:16.811Z,7.42
2018-12-09T01:14:16.814Z,7.52
2018-12-09T01:15:16.791Z,7.49
2018-12-09T01:16:16.778Z,7.47
2018-12-09T01:17:16.792Z,7.55
2018-12-09T01:18:16.755Z,7.47
2018-12-09T01:19:16.759Z,7.55
2018-12-09T01:20:16.734Z,7.44
2018-12-09T01:21:16.723Z,7.45
2018-12-09T01:22:16.714Z,7.49
2018-12-09T01:23:16.700Z,7.45
2018-12-09T01:24:16.704Z,7.47
2018-12-09T01:25:16.681Z,7.49
2018-12-09T01:26:16.670Z,7.49
2018-12-09T01:27:16.663Z,7.55
2018-12-09T01:28:16.647Z,7.60
2018-12-09T01:29:16.678Z,7.56
2018-12-09T01:30:16.628Z,7.59
2018-12-09T01:31:16.616Z,7.56
2018-12-09T01:32:16.607Z,7.60
2018-12-09T01:33:16.596Z,7.63
2018-12-09T01:34:16.586Z,7.58
2018-12-09T01:35:16.590Z,7.53
2018-12-09T01:36:16.561Z,7.59
2018-12-09T01:37:16.552Z,7.56
2018-12-09T01:38:16.541Z,7.56
2018-12-09T01:39:16.530Z,7.56
2018-12-09T01:40:16.578Z,7.52
2018-12-09T01:41:16.595Z,7.53
2018-12-09T01:42:16.500Z,7.53
2018-12-09T01:43:16.488Z,7.55
2018-12-09T01:44:16.477Z,7.55
2018-12-09T01:45:16.480Z,7.71
2018-12-09T01:46:16.456Z,7.53
2018-12-09T01:47:16.443Z,7.55
2018-12-09T01:48:16.434Z,7.52
2018-12-09T01:49:16.426Z,7.56
2018-12-09T01:50:16.429Z,7.53
2018-12-09T01:51:16.400Z,7.56
2018-12-09T01:52:16.390Z,7.58
2018-12-09T01:53:16.383Z,7.59
2018-12-09T01:54:16.373Z,7.59
2018-12-09T01:55:16.369Z,7.56
2018-12-09T01:56:16.351Z,7.55
2018-12-09T01:57:16.337Z,7.50
2018-12-09T01:58:16.328Z,7.55
2018-12-09T01:59:16.339Z,7.55
2018-12-09T02:00:16.326Z,7.53
2018-12-09T02:01:17.104Z,7.52
2018-12-09T02:02:16.284Z,7.56
2018-12-09T02:03:16.273Z,7.58
2018-12-09T02:04:16.265Z,7.55
2018-12-09T02:05:16.251Z,7.50
2018-12-09T02:06:16.278Z,7.58
2018-12-09T02:07:16.234Z,7.60
2018-12-09T02:08:16.220Z,7.55
2018-12-09T02:09:16.207Z,7.56
2018-12-09T02:10:16.199Z,7.55
2018-12-09T02:11:16.201Z,7.59
2018-12-09T02:12:16.180Z,7.72
2018-12-09T02:13:16.166Z,7.74
2018-12-09T02:14:16.155Z,7.74
2018-12-09T02:15:16.188Z,7.78
2018-12-09T02:16:16.172Z,7.66
2018-12-09T02:17:16.124Z,7.71
2018-12-09T02:18:16.112Z,7.72
2018-12-09T02:19:16.103Z,7.75
2018-12-09T02:20:16.091Z,7.67
2018-12-09T02:21:16.092Z,7.78
2018-12-09T02:22:16.082Z,7.67
2018-12-09T02:23:16.059Z,7.69
2018-12-09T02:24:16.054Z,7.72
2018-12-09T02:25:16.039Z,7.75
2018-12-09T02:26:16.029Z,7.78
2018-12-09T02:27:16.029Z,7.74
2018-12-09T02:28:16.013Z,7.75
2018-12-09T02:29:15.998Z,7.77
2018-12-09T02:30:15.987Z,7.81
2018-12-09T02:31:15.982Z,7.78
2018-12-09T02:32:15.974Z,7.77
2018-12-09T02:33:15.953Z,7.72
2018-12-09T02:34:15.941Z,7.74
2018-12-09T02:35:15.935Z,7.75
2018-12-09T02:36:15.918Z,7.81
2018-12-09T02:37:15.923Z,7.87
2018-12-09T02:38:15.900Z,7.78
2018-12-09T02:39:15.893Z,7.85
2018-12-09T02:40:15.877Z,7.82
2018-12-09T02:41:15.869Z,7.85
2018-12-09T02:42:15.879Z,7.82
2018-12-09T02:43:15.844Z,7.81
2018-12-09T02:44:15.833Z,7.90
2018-12-09T02:45:15.824Z,7.90
2018-12-09T02:46:15.812Z,7.93
2018-12-09T02:47:15.817Z,7.96
2018-12-09T02:48:15.792Z,7.87
2018-12-09T02:49:15.779Z,8.02
2018-12-09T02:50:15.767Z,7.96
2018-12-09T02:51:15.759Z,7.82
2018-12-09T02:52:15.763Z,7.87
2018-12-09T02:53:15.735Z,7.89
2018-12-09T02:54:15.735Z,7.92
2018-12-09T02:55:15.714Z,7.85
2018-12-09T02:56:15.703Z,7.94
2018-12-09T02:57:15.701Z,7.99
2018-12-09T02:58:15.682Z,7.92
2018-12-09T02:59:15.670Z,7.90
2018-12-09T03:00:15.659Z,7.89
2018-12-09T03:01:15.650Z,7.93
2018-12-09T03:02:15.669Z,7.96
2018-12-09T03:03:15.628Z,7.94
2018-12-09T03:04:15.624Z,7.89
2018-12-09T03:05:15.605Z,7.93
2018-12-09T03:06:15.595Z,7.99
2018-12-09T03:07:15.588Z,7.99
2018-12-09T03:08:15.595Z,7.97
2018-12-09T03:09:15.563Z,8.08
2018-12-09T03:10:15.552Z,8.03
2018-12-09T03:11:15.544Z,8.03
2018-12-09T03:12:15.530Z,8.07
2018-12-09T03:13:15.530Z,8.18
2018-12-09T03:14:15.512Z,8.04
2018-12-09T03:15:15.498Z,8.00
2018-12-09T03:16:15.486Z,8.08
2018-12-09T03:17:15.477Z,8.03
2018-12-09T03:18:15.479Z,8.03
2018-12-09T03:19:15.453Z,8.02
2018-12-09T03:20:15.449Z,8.03
2018-12-09T03:21:15.434Z,8.10
2018-12-09T03:22:15.420Z,8.20
2018-12-09T03:23:15.432Z,8.15
2018-12-09T03:24:15.400Z,8.17
2018-12-09T03:25:15.390Z,8.17
2018-12-09T03:26:15.382Z,8.14
2018-12-09T03:27:15.366Z,8.21
2018-12-09T03:28:15.377Z,8.18
2018-12-09T03:29:15.350Z,8.17
2018-12-09T03:30:15.345Z,8.21
2018-12-09T03:31:15.338Z,8.20
2018-12-09T03:32:15.320Z,8.25
2018-12-09T03:33:15.305Z,8.30
2018-12-09T03:34:15.308Z,8.26
2018-12-09T03:35:15.278Z,8.28
2018-12-09T03:36:15.267Z,8.30
2018-12-09T03:37:15.259Z,8.29
2018-12-09T03:38:15.254Z,8.26
2018-12-09T03:39:15.249Z,8.25
2018-12-09T03:40:15.231Z,8.30
2018-12-09T03:41:15.213Z,8.32
2018-12-09T03:42:15.206Z,8.18
2018-12-09T03:43:15.195Z,8.32
2018-12-09T03:44:15.191Z,8.32
2018-12-09T03:45:15.181Z,8.20
2018-12-09T03:46:15.160Z,8.25
2018-12-09T03:47:15.150Z,8.29
2018-12-09T03:48:15.137Z,8.25
2018-12-09T03:49:15.143Z,8.29
2018-12-09T03:50:15.122Z,8.28
2018-12-09T03:51:15.106Z,8.32
2018-12-09T03:52:15.093Z,8.28
2018-12-09T03:53:15.086Z,8.30
2018-12-09T03:54:15.084Z,8.33
2018-12-09T03:55:15.063Z,8.22
2018-12-09T03:56:15.066Z,8.26
2018-12-09T03:57:15.053Z,8.25
2018-12-09T03:58:15.027Z,8.22
2018-12-09T03:59:15.050Z,8.20
2018-12-09T04:00:15.010Z,8.26
2018-12-09T04:01:14.997Z,8.22
2018-12-09T04:02:14.991Z,8.26
2018-12-09T04:03:14.978Z,8.22
2018-12-09T04:04:14.964Z,8.20
2018-12-09T04:05:14.963Z,8.25
2018-12-09T04:06:14.942Z,8.25
2018-12-09T04:07:14.933Z,8.25
2018-12-09T04:08:14.932Z,8.26
2018-12-09T04:09:14.923Z,8.25
2018-12-09T04:10:14.912Z,8.30
2018-12-09T04:11:14.890Z,8.25
2018-12-09T04:12:14.877Z,8.21
2018-12-09T04:13:14.882Z,8.25
2018-12-09T04:14:14.897Z,8.25
2018-12-09T04:15:14.858Z,8.18
2018-12-09T04:16:14.833Z,8.22
2018-12-09T04:17:14.822Z,8.29
2018-12-09T04:18:14.817Z,8.30
2018-12-09T04:19:14.804Z,8.30
2018-12-09T04:20:14.802Z,8.32
2018-12-09T04:21:14.779Z,8.30
2018-12-09T04:22:14.768Z,8.28
2018-12-09T04:23:14.759Z,8.28
2018-12-09T04:24:14.748Z,8.33
2018-12-09T04:25:14.747Z,8.35
2018-12-09T04:26:14.725Z,8.36
2018-12-09T04:27:14.713Z,8.29
2018-12-09T04:28:14.702Z,8.37
2018-12-09T04:29:14.694Z,8.33
2018-12-09T04:30:14.897Z,8.37
2018-12-09T04:31:14.672Z,8.32
2018-12-09T04:32:14.660Z,8.36
2018-12-09T04:33:14.652Z,8.36
2018-12-09T04:34:14.642Z,8.35
2018-12-09T04:35:14.626Z,8.39
2018-12-09T04:36:14.634Z,8.37
2018-12-09T04:37:14.605Z,8.36
2018-12-09T04:38:14.598Z,8.36
2018-12-09T04:39:14.584Z,8.42
2018-12-09T04:40:14.584Z,8.40
2018-12-09T04:41:14.579Z,8.50
2018-12-09T04:42:14.556Z,8.48
2018-12-09T04:43:14.541Z,8.39
2018-12-09T04:44:14.564Z,8.44
2018-12-09T04:45:14.520Z,8.44
2018-12-09T04:46:14.521Z,8.54
2018-12-09T04:47:14.496Z,8.51
2018-12-09T04:48:14.484Z,8.62
2018-12-09T04:49:14.478Z,8.47
2018-12-09T04:50:14.466Z,8.42
2018-12-09T04:51:14.465Z,8.47
2018-12-09T04:52:14.462Z,8.51
2018-12-09T04:53:14.431Z,8.63
2018-12-09T04:54:14.422Z,8.48
2018-12-09T04:55:14.408Z,8.51
2018-12-09T04:56:14.409Z,8.44
2018-12-09T04:57:14.388Z,8.50
2018-12-09T04:58:14.378Z,8.44
2018-12-09T04:59:14.368Z,8.54
2018-12-09T05:00:14.356Z,8.48
2018-12-09T05:01:14.356Z,8.51
2018-12-09T05:02:14.351Z,8.60
2018-12-09T05:03:14.398Z,8.53
2018-12-09T05:04:14.315Z,8.57
2018-12-09T05:05:14.301Z,8.54
2018-12-09T05:06:14.302Z,8.53
2018-12-09T05:07:14.305Z,8.55
2018-12-09T05:08:14.268Z,8.58
2018-12-09T05:09:14.259Z,8.57
2018-12-09T05:10:14.250Z,8.53
2018-12-09T05:11:14.247Z,8.54
2018-12-09T05:12:14.323Z,8.55
2018-12-09T05:13:14.214Z,8.60
2018-12-09T05:14:14.205Z,8.51
2018-12-09T05:15:14.192Z,8.57
2018-12-09T05:16:14.193Z,8.51
2018-12-09T05:17:14.172Z,8.62
2018-12-09T05:18:14.166Z,8.58
2018-12-09T05:19:14.148Z,8.63
2018-12-09T05:20:14.142Z,8.55
2018-12-09T05:21:14.161Z,8.58
2018-12-09T05:22:14.118Z,8.66
2018-12-09T05:23:14.105Z,8.68
2018-12-09T05:24:14.097Z,8.60
2018-12-09T05:25:14.083Z,8.58
2018-12-09T05:26:14.074Z,8.63
2018-12-09T05:27:14.072Z,8.65
2018-12-09T05:28:14.054Z,8.68
2018-12-09T05:29:14.040Z,8.65
2018-12-09T05:30:14.031Z,8.72
2018-12-09T05:31:14.018Z,8.68
2018-12-09T05:32:14.019Z,8.71
2018-12-09T05:33:13.996Z,8.69
2018-12-09T05:34:13.991Z,8.73
2018-12-09T05:35:13.980Z,8.71
2018-12-09T05:36:13.964Z,8.69
2018-12-09T05:37:13.964Z,8.68
2018-12-09T05:38:13.941Z,8.68
2018-12-09T05:39:13.931Z,8.71
2018-12-09T05:40:13.922Z,8.68
2018-12-09T05:41:13.912Z,8.65
2018-12-09T05:42:13.909Z,8.58
2018-12-09T05:43:13.890Z,8.73
2018-12-09T05:44:13.877Z,8.57
2018-12-09T05:45:13.871Z,8.66
2018-12-09T05:46:13.859Z,8.60
2018-12-09T05:47:13.846Z,8.62
2018-12-09T05:48:13.844Z,8.63
2018-12-09T05:49:13.824Z,8.60
2018-12-09T05:50:13.811Z,8.55
2018-12-09T05:51:13.801Z,8.57
2018-12-09T05:52:13.790Z,8.58
2018-12-09T05:53:13.792Z,8.60
2018-12-09T05:54:13.768Z,8.58
2018-12-09T05:55:13.759Z,8.58
2018-12-09T05:56:13.744Z,8.51
2018-12-09T05:57:13.736Z,8.53
2018-12-09T05:58:13.745Z,8.60
2018-12-09T05:59:13.713Z,8.58
2018-12-09T06:00:13.700Z,8.50
2018-12-09T06:01:13.692Z,8.57
2018-12-09T06:02:13.687Z,8.50
2018-12-09T06:03:13.681Z,8.53
2018-12-09T06:04:13.662Z,8.57
2018-12-09T06:05:13.647Z,8.53
2018-12-09T06:06:13.637Z,8.53
2018-12-09T06:07:13.630Z,8.57
2018-12-09T06:08:13.627Z,8.53
2018-12-09T06:09:13.608Z,8.57
2018-12-09T06:10:13.594Z,8.60
2018-12-09T06:11:13.587Z,8.54
2018-12-09T06:12:13.579Z,8.58
2018-12-09T06:13:13.574Z,8.60
2018-12-09T06:14:13.549Z,8.55
2018-12-09T06:15:13.542Z,8.62
2018-12-09T06:16:13.528Z,8.60
2018-12-09T06:17:13.519Z,8.66
2018-12-09T06:18:13.549Z,8.53
2018-12-09T06:19:13.501Z,8.54
2018-12-09T06:20:13.483Z,8.62
2018-12-09T06:21:13.475Z,8.57
2018-12-09T06:22:13.462Z,8.62
2018-12-09T06:23:13.454Z,8.53
2018-12-09T06:24:13.453Z,8.57
2018-12-09T06:25:13.434Z,8.53
2018-12-09T06:26:13.420Z,8.51
2018-12-09T06:27:13.410Z,8.53
2018-12-09T06:28:13.403Z,8.57
2018-12-09T06:29:13.397Z,8.53
2018-12-09T06:30:13.379Z,8.48
2018-12-09T06:31:13.373Z,8.47
2018-12-09T06:32:13.398Z,8.53
2018-12-09T06:33:13.344Z,8.47
2018-12-09T06:34:13.341Z,8.50
2018-12-09T06:35:13.327Z,8.39
2018-12-09T06:36:13.319Z,8.37
2018-12-09T06:37:13.299Z,8.35
2018-12-09T06:38:13.292Z,8.36
2018-12-09T06:39:13.298Z,8.39
2018-12-09T06:40:13.268Z,8.39
2018-12-09T06:41:13.254Z,8.37
2018-12-09T06:42:13.251Z,8.37
2018-12-09T06:43:13.274Z,8.33
2018-12-09T06:44:13.258Z,8.32
2018-12-09T06:45:13.214Z,8.30
2018-12-09T06:46:13.205Z,8.29
2018-12-09T06:47:13.193Z,8.22
2018-12-09T06:48:13.231Z,8.20
2018-12-09T06:49:13.168Z,8.25
2018-12-09T06:50:13.168Z,8.25
2018-12-09T06:51:13.148Z,8.12
2018-12-09T06:52:13.138Z,8.17
2018-12-09T06:53:13.128Z,8.17
2018-12-09T06:54:13.121Z,8.18
2018-12-09T06:55:13.124Z,8.14
2018-12-09T06:56:13.095Z,8.21
2018-12-09T06:57:13.086Z,8.15
2018-12-09T06:58:13.075Z,8.14
2018-12-09T06:59:13.061Z,8.14
2018-12-09T07:00:13.061Z,8.14
2018-12-09T07:01:13.038Z,8.12
2018-12-09T07:02:13.026Z,8.18
2018-12-09T07:03:13.015Z,8.20
2018-12-09T07:04:13.007Z,8.12
2018-12-09T07:05:13.007Z,8.11
2018-12-09T07:06:12.985Z,8.03
2018-12-09T07:07:12.973Z,8.02
2018-12-09T07:08:12.964Z,8.03
2018-12-09T07:09:12.952Z,8.08
2018-12-09T07:10:12.956Z,8.00
2018-12-09T07:11:12.933Z,8.02
2018-12-09T07:12:12.929Z,8.03
2018-12-09T07:13:12.924Z,8.08
2018-12-09T07:14:12.904Z,8.02
2018-12-09T07:15:12.908Z,8.07
2018-12-09T07:16:12.875Z,8.02
2018-12-09T07:17:12.876Z,7.99
2018-12-09T07:18:12.856Z,8.04
2018-12-09T07:19:12.846Z,7.99
2018-12-09T07:20:12.876Z,8.00
2018-12-09T07:21:12.821Z,8.08
2018-12-09T07:22:12.817Z,8.03
2018-12-09T07:23:12.800Z,7.99
2018-12-09T07:24:12.789Z,8.00
2018-12-09T07:25:12.777Z,8.07
2018-12-09T07:26:12.778Z,8.10
2018-12-09T07:27:12.756Z,8.07
2018-12-09T07:28:12.751Z,8.00
2018-12-09T07:29:12.735Z,8.11
2018-12-09T07:30:12.727Z,8.02
2018-12-09T07:31:12.726Z,8.11
2018-12-09T07:32:12.700Z,8.07
2018-12-09T07:33:12.691Z,8.12
2018-12-09T07:34:12.688Z,8.04
2018-12-09T07:35:12.670Z,8.07
2018-12-09T07:36:12.668Z,8.15
2018-12-09T07:37:12.646Z,8.20
2018-12-09T07:38:12.636Z,8.17
2018-12-09T07:39:12.625Z,8.11
2018-12-09T07:40:12.615Z,8.15
2018-12-09T07:41:12.615Z,8.17
2018-12-09T07:42:12.598Z,8.12
2018-12-09T07:43:12.582Z,8.12
2018-12-09T07:44:12.572Z,8.15
2018-12-09T07:45:12.563Z,8.11
2018-12-09T07:46:12.559Z,8.10
2018-12-09T07:47:12.546Z,8.12
2018-12-09T07:48:12.526Z,8.08
2018-12-09T07:49:12.517Z,8.12
2018-12-09T07:50:12.504Z,8.10
2018-12-09T07:51:12.535Z,8.17
2018-12-09T07:52:12.484Z,8.15
2018-12-09T07:53:12.486Z,8.15
2018-12-09T07:54:12.461Z,8.15
2018-12-09T07:55:12.458Z,8.12
2018-12-09T07:56:12.441Z,8.17
2018-12-09T07:57:12.452Z,8.12
2018-12-09T07:58:12.417Z,8.12
2018-12-09T07:59:12.409Z,8.17
2018-12-09T08:00:12.398Z,8.15
2018-12-09T08:01:12.386Z,8.17
2018-12-09T08:02:12.387Z,8.20
2018-12-09T08:03:12.364Z,8.15
2018-12-09T08:04:12.354Z,8.20
2018-12-09T08:05:12.343Z,8.21
2018-12-09T08:06:12.332Z,8.18
2018-12-09T08:07:12.335Z,8.20
2018-12-09T08:08:12.314Z,8.22
2018-12-09T08:09:12.306Z,8.28
2018-12-09T08:10:12.288Z,8.25
2018-12-09T08:11:12.277Z,8.29
2018-12-09T08:12:12.281Z,8.33
2018-12-09T08:13:12.258Z,8.29
2018-12-09T08:14:12.253Z,8.28
2018-12-09T08:15:12.247Z,8.30
2018-12-09T08:16:12.224Z,8.30
2018-12-09T08:17:12.225Z,8.33
2018-12-09T08:18:12.200Z,8.30
2018-12-09T08:19:12.190Z,8.32
2018-12-09T08:20:12.177Z,8.40
2018-12-09T08:21:12.166Z,8.36
2018-12-09T08:22:12.194Z,8.29
2018-12-09T08:23:12.166Z,8.30
2018-12-09T08:24:12.140Z,8.30
2018-12-09T08:25:12.166Z,8.35
2018-12-09T08:26:12.113Z,8.29
2018-12-09T08:27:12.127Z,8.32
2018-12-09T08:28:12.180Z,8.33
2018-12-09T08:29:12.090Z,8.32
2018-12-09T08:30:12.103Z,8.28
2018-12-09T08:31:12.060Z,8.26
2018-12-09T08:32:12.060Z,8.22
2018-12-09T08:33:12.060Z,8.21
2018-12-09T08:34:12.035Z,8.21
2018-12-09T08:35:12.050Z,8.21
2018-12-09T08:36:12.020Z,8.32
2018-12-09T08:37:11.993Z,8.35
2018-12-09T08:38:11.993Z,8.30
2018-12-09T08:39:11.974Z,8.28
2018-12-09T08:40:11.966Z,8.33
2018-12-09T08:41:11.950Z,8.33
2018-12-09T08:42:11.938Z,8.42
2018-12-09T08:43:11.938Z,8.32
2018-12-09T08:44:11.916Z,8.29
2018-12-09T08:45:11.911Z,8.29
2018-12-09T08:46:11.898Z,8.26
2018-12-09T08:47:11.889Z,8.33
2018-12-09T08:48:11.877Z,8.30
2018-12-09T08:49:11.877Z,8.32
2018-12-09T08:50:11.864Z,8.33
2018-12-09T08:51:11.852Z,8.29
2018-12-09T08:52:11.833Z,8.29
2018-12-09T08:53:11.826Z,8.37
2018-12-09T08:54:12.184Z,8.33
2018-12-09T08:55:11.811Z,8.33
2018-12-09T08:56:11.786Z,8.32
2018-12-09T08:57:11.783Z,8.32
2018-12-09T08:58:11.771Z,8.33
2018-12-09T08:59:11.862Z,8.35
2018-12-09T09:00:11.758Z,8.30
2018-12-09T09:01:11.732Z,8.26
2018-12-09T09:02:11.721Z,8.33
2018-12-09T09:03:11.709Z,8.26
2018-12-09T09:04:11.755Z,8.25
2018-12-09T09:05:11.689Z,8.29
2018-12-09T09:06:11.677Z,8.35
2018-12-09T09:07:11.669Z,8.33
2018-12-09T09:08:11.659Z,8.29
2018-12-09T09:09:11.675Z,8.35
2018-12-09T09:10:11.635Z,8.32
2018-12-09T09:11:11.623Z,8.40
2018-12-09T09:12:11.614Z,8.37
2018-12-09T09:13:11.616Z,8.37
2018-12-09T09:14:11.627Z,8.36
2018-12-09T09:15:11.584Z,8.35
2018-12-09T09:16:11.569Z,8.36
2018-12-09T09:17:11.559Z,8.40
2018-12-09T09:18:11.548Z,8.48
2018-12-09T09:19:11.537Z,8.50
2018-12-09T09:20:11.540Z,8.48
2018-12-09T09:21:11.515Z,8.57
2018-12-09T09:22:11.503Z,8.58
2018-12-09T09:23:11.495Z,8.65
2018-12-09T09:24:11.508Z,8.68
2018-12-09T09:25:11.485Z,8.71
2018-12-09T09:26:11.466Z,8.76
2018-12-09T09:27:11.452Z,8.76
2018-12-09T09:28:11.444Z,8.78
2018-12-09T09:29:11.429Z,8.75
2018-12-09T09:30:11.431Z,8.75
2018-12-09T09:31:11.415Z,8.69
2018-12-09T09:32:11.401Z,8.72
2018-12-09T09:33:11.386Z,8.75
2018-12-09T09:34:11.388Z,8.71
2018-12-09T09:35:11.378Z,8.68
2018-12-09T09:36:12.180Z,8.68
2018-12-09T09:37:11.345Z,8.71
2018-12-09T09:38:11.342Z,8.69
2018-12-09T09:39:11.323Z,8.53
2018-12-09T09:40:11.707Z,8.62
2018-12-09T09:41:11.367Z,8.62
2018-12-09T09:42:11.302Z,8.58
2018-12-09T09:43:11.320Z,8.58
2018-12-09T09:44:11.276Z,8.58
2018-12-09T09:45:11.273Z,8.62
2018-12-09T09:46:11.409Z,8.62
2018-12-09T09:47:11.269Z,8.57
2018-12-09T09:48:12.174Z,8.60
2018-12-09T09:49:11.252Z,8.51
2018-12-09T09:50:12.190Z,8.57
2018-12-09T09:51:11.280Z,8.55
2018-12-09T09:52:12.145Z,8.62
2018-12-09T09:53:11.204Z,8.53
2018-12-09T09:54:11.176Z,8.62
2018-12-09T09:55:11.151Z,8.57
2018-12-09T09:56:11.151Z,8.57
2018-12-09T09:57:11.132Z,8.55
2018-12-09T09:58:11.142Z,8.51
2018-12-09T09:59:11.108Z,8.55
2018-12-09T10:00:11.101Z,8.62
2018-12-09T10:01:12.144Z,8.58
2018-12-09T10:02:11.079Z,8.55
2018-12-09T10:03:11.061Z,8.58
2018-12-09T10:04:11.054Z,8.68
2018-12-09T10:05:11.045Z,8.66
2018-12-09T10:06:11.046Z,8.68
2018-12-09T10:07:11.025Z,8.66
2018-12-09T10:08:11.009Z,8.79
2018-12-09T10:09:11.005Z,8.87
2018-12-09T10:10:10.994Z,8.93
2018-12-09T10:11:10.992Z,8.94
2018-12-09T10:12:10.968Z,8.97
2018-12-09T10:13:10.959Z,9.06
2018-12-09T10:14:10.946Z,8.94
2018-12-09T10:15:10.939Z,8.97
2018-12-09T10:16:10.939Z,8.97
2018-12-09T10:17:10.915Z,8.96
2018-12-09T10:18:10.903Z,8.94
2018-12-09T10:19:10.894Z,8.96
2018-12-09T10:20:10.887Z,8.93
2018-12-09T10:21:10.880Z,8.93
2018-12-09T10:22:10.859Z,8.87
2018-12-09T10:23:10.852Z,8.90
2018-12-09T10:24:10.845Z,8.93
2018-12-09T10:25:10.835Z,8.96
2018-12-09T10:26:10.831Z,9.06
2018-12-09T10:27:10.806Z,9.12
2018-12-09T10:28:10.805Z,9.09
2018-12-09T10:29:10.785Z,9.18
2018-12-09T10:30:10.775Z,9.28
2018-12-09T10:31:10.810Z,9.32
2018-12-09T10:32:10.754Z,9.31
2018-12-09T10:33:10.766Z,9.28
2018-12-09T10:34:10.736Z,9.39
2018-12-09T10:35:10.728Z,9.28
2018-12-09T10:36:10.712Z,9.39
2018-12-09T10:37:10.735Z,9.23
2018-12-09T10:38:10.693Z,9.25
2018-12-09T10:39:10.679Z,9.28
2018-12-09T10:40:10.667Z,9.27
2018-12-09T10:41:10.660Z,9.27
2018-12-09T10:42:10.657Z,9.30
2018-12-09T10:43:10.638Z,9.28
2018-12-09T10:44:10.634Z,9.28
2018-12-09T10:45:10.617Z,9.27
2018-12-09T10:46:10.605Z,9.25
2018-12-09T10:47:10.609Z,9.24
2018-12-09T10:48:10.597Z,9.31
2018-12-09T10:49:10.591Z,9.28
2018-12-09T10:50:10.560Z,9.23
2018-12-09T10:51:10.552Z,9.23
2018-12-09T10:52:11.153Z,9.21
2018-12-09T10:53:10.555Z,9.18
2018-12-09T10:54:10.543Z,9.27
2018-12-09T10:55:10.540Z,9.23
2018-12-09T10:56:10.497Z,9.27
2018-12-09T10:57:10.498Z,9.31
2018-12-09T10:58:10.485Z,9.25
2018-12-09T10:59:10.468Z,9.28
2018-12-09T11:00:10.457Z,9.27
2018-12-09T11:01:10.444Z,9.32
2018-12-09T11:02:10.443Z,9.31
2018-12-09T11:03:10.422Z,9.24
2018-12-09T11:04:10.411Z,9.32
2018-12-09T11:05:10.404Z,9.28
2018-12-09T11:06:10.391Z,9.31
2018-12-09T11:07:10.396Z,9.31
2018-12-09T11:08:10.369Z,9.31
2018-12-09T11:09:11.169Z,9.30
2018-12-09T11:10:10.363Z,9.27
2018-12-09T11:11:10.345Z,9.28
2018-12-09T11:12:10.373Z,9.31
2018-12-09T11:13:10.357Z,9.24
2018-12-09T11:14:10.304Z,9.23
2018-12-09T11:15:10.295Z,9.25
2018-12-09T11:16:10.286Z,9.27
2018-12-09T11:17:10.509Z,9.21
2018-12-09T11:18:10.278Z,9.32
2018-12-09T11:19:10.270Z,9.34
2018-12-09T11:20:10.249Z,9.30
2018-12-09T11:21:10.259Z,9.21
2018-12-09T11:22:10.234Z,9.28
2018-12-09T11:23:10.222Z,9.23
2018-12-09T11:24:10.297Z,9.21
2018-12-09T11:25:10.211Z,9.20
2018-12-09T11:26:10.193Z,9.12
2018-12-09T11:27:10.235Z,9.20
2018-12-09T11:28:10.186Z,9.12
2018-12-09T11:29:10.198Z,9.10
2018-12-09T11:30:10.135Z,9.13
2018-12-09T11:31:10.124Z,9.10
2018-12-09T11:32:10.113Z,9.13
2018-12-09T11:33:10.121Z,9.05
2018-12-09T11:34:10.093Z,9.02
2018-12-09T11:35:10.108Z,9.13
2018-12-09T11:36:10.072Z,9.10
2018-12-09T11:37:10.063Z,9.09
2018-12-09T11:38:10.111Z,9.15
2018-12-09T11:39:10.043Z,9.18
2018-12-09T11:40:10.029Z,9.25
2018-12-09T11:41:10.022Z,9.24
2018-12-09T11:42:10.013Z,9.24
2018-12-09T11:43:10.036Z,9.31
2018-12-09T11:44:09.999Z,9.31
2018-12-09T11:45:09.992Z,9.42
2018-12-09T11:46:09.987Z,9.45
2018-12-09T11:47:09.963Z,9.43
2018-12-09T11:48:09.955Z,9.45
2018-12-09T11:49:09.932Z,9.50
2018-12-09T11:50:09.923Z,9.43
2018-12-09T11:51:09.913Z,9.57
2018-12-09T11:52:09.906Z,9.45
2018-12-09T11:53:09.903Z,9.43
2018-12-09T11:54:09.881Z,9.56
2018-12-09T11:55:09.877Z,9.57
2018-12-09T11:56:09.860Z,9.56
2018-12-09T11:57:09.850Z,9.48
2018-12-09T11:58:09.851Z,9.45
2018-12-09T11:59:11.879Z,9.43
2018-12-09T12:00:09.819Z,9.49
2018-12-09T12:01:09.812Z,9.30
2018-12-09T12:02:09.794Z,9.31
2018-12-09T12:03:09.805Z,9.30
2018-12-09T12:04:09.774Z,9.28
2018-12-09T12:05:09.761Z,9.25
2018-12-09T12:06:09.752Z,9.30
2018-12-09T12:07:09.743Z,9.32
2018-12-09T12:08:09.738Z,9.28
2018-12-09T12:09:09.735Z,9.24
2018-12-09T12:10:09.714Z,9.28
2018-12-09T12:11:09.697Z,9.24
2018-12-09T12:12:09.689Z,9.20
2018-12-09T12:13:09.676Z,9.21
2018-12-09T12:14:09.678Z,9.16
2018-12-09T12:15:09.658Z,9.27
2018-12-09T12:16:09.649Z,9.23
2018-12-09T12:17:09.634Z,9.21
2018-12-09T12:18:09.624Z,9.24
2018-12-09T12:19:09.623Z,9.24
2018-12-09T12:20:09.602Z,9.24
2018-12-09T12:21:10.203Z,9.20
2018-12-09T12:22:09.583Z,9.18
2018-12-09T12:23:09.582Z,9.10
2018-12-09T12:24:09.572Z,9.10
2018-12-09T12:25:09.549Z,9.16
2018-12-09T12:26:09.546Z,9.20
2018-12-09T12:27:09.525Z,9.18
2018-12-09T12:28:09.525Z,9.12
2018-12-09T12:29:09.519Z,9.16
2018-12-09T12:30:09.493Z,9.24
2018-12-09T12:31:09.486Z,9.15
2018-12-09T12:32:09.490Z,9.20
2018-12-09T12:33:09.464Z,9.18
2018-12-09T12:34:09.464Z,9.25
2018-12-09T12:35:09.441Z,9.24
2018-12-09T12:36:09.436Z,9.25
2018-12-09T12:37:09.422Z,9.25
2018-12-09T12:38:09.410Z,9.23
2018-12-09T12:39:09.432Z,9.25
2018-12-09T12:40:09.394Z,9.27
2018-12-09T12:41:09.383Z,9.32
2018-12-09T12:42:09.369Z,9.23
2018-12-09T12:43:09.356Z,9.27
2018-12-09T12:44:09.349Z,9.31
2018-12-09T12:45:09.345Z,9.25
2018-12-09T12:46:09.327Z,9.25
2018-12-09T12:47:09.317Z,9.27
2018-12-09T12:48:09.301Z,9.27
2018-12-09T12:49:09.295Z,9.27
2018-12-09T12:50:09.298Z,9.28
2018-12-09T12:51:09.277Z,9.30
2018-12-09T12:52:09.263Z,9.35
2018-12-09T12:53:09.249Z,9.21
2018-12-09T12:54:09.244Z,9.34
2018-12-09T12:55:09.747Z,9.24
2018-12-09T12:56:09.268Z,9.20
2018-12-09T12:57:09.211Z,9.30
2018-12-09T12:58:09.200Z,9.30
2018-12-09T12:59:09.198Z,9.25
2018-12-09T13:00:09.185Z,9.27
2018-12-09T13:01:09.165Z,9.34
2018-12-09T13:02:09.159Z,9.21
2018-12-09T13:03:09.144Z,9.18
2018-12-09T13:04:09.134Z,9.24
2018-12-09T13:05:09.216Z,9.21
2018-12-09T13:06:09.111Z,9.20
2018-12-09T13:07:09.130Z,9.25
2018-12-09T13:08:09.087Z,9.30
2018-12-09T13:09:09.078Z,9.18
2018-12-09T13:10:09.102Z,9.18
2018-12-09T13:11:09.059Z,9.20
2018-12-09T13:12:09.057Z,9.12
2018-12-09T13:13:09.034Z,9.18
2018-12-09T13:14:09.030Z,9.13
2018-12-09T13:15:09.032Z,9.18
2018-12-09T13:16:09.007Z,9.10
2018-12-09T13:17:08.994Z,9.06
2018-12-09T13:18:09.020Z,9.13